Aviation Digital Data Service (ADDS)

Output produced by METARs form (1911 UTC 25 June 2017)
found at http://www.aviationweather.gov/adds/metars/
 
EBBE 251855Z AUTO 23009KT 9999 FEW030/// SCT039/// BKN045/// 18/13 Q1013 BLU
TAF EBBE 251541Z 2519/2607 25012KT 9999 BKN040 
     TEMPO 2521/2607 BKN012 
     BECMG 2604/2606 30005KT
       
EBBR 251850Z 25012G22KT 9999 BKN030 19/12 Q1013 NOSIG
TAF EBBR 251701Z 2518/2624 25012KT 9999 BKN030 
     PROB30 
     TEMPO 2522/2606 BKN014 
     BECMG 2606/2608 33006KT 
       
EBCI 251850Z 25010KT 9999 FEW028 BKN042 18/13 Q1014 NOSIG
TAF EBCI 251701Z 2518/2624 26011KT 9999 BKN030 
     PROB30 
     TEMPO 2523/2607 BKN012 
     BECMG 2608/2610 33006KT 
       
EBCV 251855Z AUTO 25008KT 9999 OVC026/// 19/13 Q1014 BLU
TAF EBCV 251541Z 2519/2607 24013G25KT 9999 BKN030 
     BECMG 2519/2521 24010KT FEW018 
     BECMG 2601/2603 24008KT SCT020 SCT090 
     BECMG 2604/2606 29003KT FEW010 BKN028 
     BECMG 2606/2607 FEW018 SCT030 BY EBWM
       
EBAW 251850Z 24014KT 210V270 9999 FEW030 BKN035 19/13 Q1012 NOSIG
TAF EBAW 251701Z 2518/2603 24011KT 9999 BKN030 
     PROB30 
     TEMPO 2522/2603 BKN014 
       
EBFS 251855Z AUTO 28009KT 9999 BKN042/// OVC049/// 18/13 Q1015 BLU
EBBL 251855Z AUTO 25014KT 9999 BKN040/// 19/12 Q1012 BLU
EBFN 251855Z AUTO 25015KT 9999 SCT017/// BKN065/// 17/13 Q1012 WHT
TAF EBFN 251541Z 2519/2607 24015G25KT 9999 SCT022 BKN050 
     TEMPO 2523/2604 BKN010 
     BECMG 2523/2601 29010KT 
     BECMG 2601/2603 34010KT
       
EBLG 251850Z 27011KT 9999 SCT033 BKN043 19/13 Q1014 NOSIG
TAF EBLG 251701Z 2518/2624 26010KT 9999 SCT030 
     PROB30 
     TEMPO 2600/2607 BKN014 
     BECMG 2609/2611 33006KT 
       
EBOS 251850Z 24013KT 9999 FEW019 17/13 Q1012 NOSIG
TAF EBOS 251701Z 2518/2624 24015G25KT 9999 BKN030 
     PROB30 
     TEMPO 2521/2524 BKN011 
     BECMG 2601/2603 33008KT